sensor_id;sensor_type;location;lat;lon;timestamp;P1;durP1;ratioP1;P2;durP2;ratioP2
66485;SDS011;53303;47.476;8.084;2023-05-10T00:02:11;4.35;;;1.40;;
66485;SDS011;53303;47.476;8.084;2023-05-10T00:04:36;4.53;;;1.45;;
66485;SDS011;53303;47.476;8.084;2023-05-10T00:07:04;6.15;;;1.65;;
66485;SDS011;53303;47.476;8.084;2023-05-10T00:09:29;6.88;;;1.50;;
66485;SDS011;53303;47.476;8.084;2023-05-10T00:11:55;5.40;;;1.50;;
66485;SDS011;53303;47.476;8.084;2023-05-10T00:14:23;4.32;;;1.40;;
66485;SDS011;53303;47.476;8.084;2023-05-10T00:16:50;4.13;;;1.30;;
66485;SDS011;53303;47.476;8.084;2023-05-10T00:19:16;5.03;;;1.50;;
66485;SDS011;53303;47.476;8.084;2023-05-10T00:21:44;4.22;;;1.30;;
66485;SDS011;53303;47.476;8.084;2023-05-10T00:24:09;3.45;;;1.38;;
66485;SDS011;53303;47.476;8.084;2023-05-10T00:26:35;3.33;;;1.38;;
66485;SDS011;53303;47.476;8.084;2023-05-10T00:29:00;3.63;;;1.20;;
66485;SDS011;53303;47.476;8.084;2023-05-10T00:31:25;4.43;;;1.60;;
66485;SDS011;53303;47.476;8.084;2023-05-10T00:33:51;3.72;;;1.25;;
66485;SDS011;53303;47.476;8.084;2023-05-10T00:36:16;4.28;;;1.40;;
66485;SDS011;53303;47.476;8.084;2023-05-10T00:38:42;3.67;;;1.30;;
66485;SDS011;53303;47.476;8.084;2023-05-10T00:41:07;3.90;;;1.20;;
66485;SDS011;53303;47.476;8.084;2023-05-10T00:43:33;5.75;;;1.50;;
66485;SDS011;53303;47.476;8.084;2023-05-10T00:45:58;5.03;;;1.33;;
66485;SDS011;53303;47.476;8.084;2023-05-10T00:48:24;6.32;;;1.67;;
66485;SDS011;53303;47.476;8.084;2023-05-10T00:50:50;3.95;;;1.40;;
66485;SDS011;53303;47.476;8.084;2023-05-10T00:53:15;4.32;;;1.60;;
66485;SDS011;53303;47.476;8.084;2023-05-10T00:55:41;4.43;;;1.30;;
66485;SDS011;53303;47.476;8.084;2023-05-10T00:58:09;4.15;;;1.20;;
66485;SDS011;53303;47.476;8.084;2023-05-10T01:00:35;4.70;;;1.30;;
66485;SDS011;53303;47.476;8.084;2023-05-10T01:03:05;4.47;;;1.40;;
66485;SDS011;53303;47.476;8.084;2023-05-10T01:05:30;3.67;;;1.30;;
66485;SDS011;53303;47.476;8.084;2023-05-10T01:07:56;4.47;;;1.20;;
66485;SDS011;53303;47.476;8.084;2023-05-10T01:10:22;2.97;;;1.20;;
66485;SDS011;53303;47.476;8.084;2023-05-10T01:12:47;6.32;;;1.40;;
66485;SDS011;53303;47.476;8.084;2023-05-10T01:15:13;3.78;;;1.50;;
66485;SDS011;53303;47.476;8.084;2023-05-10T01:17:40;3.92;;;1.33;;
66485;SDS011;53303;47.476;8.084;2023-05-10T01:20:09;4.35;;;1.30;;
66485;SDS011;53303;47.476;8.084;2023-05-10T01:34:59;3.38;;;1.20;;
66485;SDS011;53303;47.476;8.084;2023-05-10T01:37:28;3.05;;;1.20;;
66485;SDS011;53303;47.476;8.084;2023-05-10T01:40:03;4.22;;;1.30;;
66485;SDS011;53303;47.476;8.084;2023-05-10T01:43:10;3.30;;;1.27;;
66485;SDS011;53303;47.476;8.084;2023-05-10T01:45:30;4.95;;;1.40;;
66485;SDS011;53303;47.476;8.084;2023-05-10T01:48:03;4.90;;;1.30;;
66485;SDS011;53303;47.476;8.084;2023-05-10T01:50:35;4.53;;;1.35;;
66485;SDS011;53303;47.476;8.084;2023-05-10T01:53:02;2.78;;;1.20;;
66485;SDS011;53303;47.476;8.084;2023-05-10T01:55:32;4.53;;;1.70;;
66485;SDS011;53303;47.476;8.084;2023-05-10T01:58:00;3.13;;;1.10;;
66485;SDS011;53303;47.476;8.084;2023-05-10T02:00:36;2.78;;;1.25;;
66485;SDS011;53303;47.476;8.084;2023-05-10T02:03:07;4.38;;;1.45;;
66485;SDS011;53303;47.476;8.084;2023-05-10T02:05:35;4.15;;;1.20;;
66485;SDS011;53303;47.476;8.084;2023-05-10T02:08:03;3.72;;;1.33;;
66485;SDS011;53303;47.476;8.084;2023-05-10T02:10:31;3.22;;;1.17;;
66485;SDS011;53303;47.476;8.084;2023-05-10T02:12:59;3.83;;;1.20;;
66485;SDS011;53303;47.476;8.084;2023-05-10T02:15:26;3.88;;;1.40;;
66485;SDS011;53303;47.476;8.084;2023-05-10T02:17:52;2.72;;;1.33;;
66485;SDS011;53303;47.476;8.084;2023-05-10T02:20:20;6.63;;;1.48;;
66485;SDS011;53303;47.476;8.084;2023-05-10T02:22:49;3.75;;;1.20;;
66485;SDS011;53303;47.476;8.084;2023-05-10T02:25:17;3.97;;;1.33;;
66485;SDS011;53303;47.476;8.084;2023-05-10T02:27:45;4.13;;;1.27;;
66485;SDS011;53303;47.476;8.084;2023-05-10T02:30:13;4.68;;;1.30;;
66485;SDS011;53303;47.476;8.084;2023-05-10T02:32:39;3.58;;;1.23;;
66485;SDS011;53303;47.476;8.084;2023-05-10T02:35:05;4.18;;;1.20;;
66485;SDS011;53303;47.476;8.084;2023-05-10T02:37:32;4.50;;;1.55;;
66485;SDS011;53303;47.476;8.084;2023-05-10T02:39:58;4.78;;;1.30;;
66485;SDS011;53303;47.476;8.084;2023-05-10T02:42:26;2.75;;;1.00;;
66485;SDS011;53303;47.476;8.084;2023-05-10T02:44:53;5.75;;;1.38;;
66485;SDS011;53303;47.476;8.084;2023-05-10T02:47:24;8.18;;;1.40;;
66485;SDS011;53303;47.476;8.084;2023-05-10T02:49:49;4.45;;;1.15;;
66485;SDS011;53303;47.476;8.084;2023-05-10T02:52:16;4.10;;;1.48;;
66485;SDS011;53303;47.476;8.084;2023-05-10T02:54:49;4.28;;;1.27;;
66485;SDS011;53303;47.476;8.084;2023-05-10T02:57:17;2.70;;;1.13;;
66485;SDS011;53303;47.476;8.084;2023-05-10T02:59:50;6.00;;;1.30;;
66485;SDS011;53303;47.476;8.084;2023-05-10T03:02:15;3.22;;;1.20;;
66485;SDS011;53303;47.476;8.084;2023-05-10T03:04:41;3.50;;;1.17;;
66485;SDS011;53303;47.476;8.084;2023-05-10T03:07:06;4.20;;;1.58;;
66485;SDS011;53303;47.476;8.084;2023-05-10T03:09:32;3.53;;;1.20;;
66485;SDS011;53303;47.476;8.084;2023-05-10T03:12:07;3.38;;;1.30;;
66485;SDS011;53303;47.476;8.084;2023-05-10T03:17:32;4.28;;;1.27;;
66485;SDS011;53303;47.476;8.084;2023-05-10T03:20:09;4.40;;;1.33;;
66485;SDS011;53303;47.476;8.084;2023-05-10T03:22:39;4.07;;;1.40;;
66485;SDS011;53303;47.476;8.084;2023-05-10T03:25:08;4.93;;;1.33;;
66485;SDS011;53303;47.476;8.084;2023-05-10T03:27:36;3.40;;;1.23;;
66485;SDS011;53303;47.476;8.084;2023-05-10T03:30:05;3.63;;;1.20;;
66485;SDS011;53303;47.476;8.084;2023-05-10T03:32:33;5.78;;;1.50;;
66485;SDS011;53303;47.476;8.084;2023-05-10T03:34:59;5.15;;;1.23;;
66485;SDS011;53303;47.476;8.084;2023-05-10T03:37:25;5.43;;;1.33;;
66485;SDS011;53303;47.476;8.084;2023-05-10T03:39:50;6.13;;;1.30;;
66485;SDS011;53303;47.476;8.084;2023-05-10T03:42:16;4.10;;;1.38;;
66485;SDS011;53303;47.476;8.084;2023-05-10T03:44:42;6.65;;;1.70;;
66485;SDS011;53303;47.476;8.084;2023-05-10T03:47:08;5.05;;;1.45;;
66485;SDS011;53303;47.476;8.084;2023-05-10T03:49:33;5.45;;;1.42;;
66485;SDS011;53303;47.476;8.084;2023-05-10T03:51:59;7.90;;;1.70;;
66485;SDS011;53303;47.476;8.084;2023-05-10T03:54:24;4.15;;;1.30;;
66485;SDS011;53303;47.476;8.084;2023-05-10T03:56:50;6.82;;;1.52;;
66485;SDS011;53303;47.476;8.084;2023-05-10T03:59:15;3.60;;;1.10;;
66485;SDS011;53303;47.476;8.084;2023-05-10T04:01:41;5.65;;;1.40;;
66485;SDS011;53303;47.476;8.084;2023-05-10T04:04:06;11.65;;;1.90;;
66485;SDS011;53303;47.476;8.084;2023-05-10T04:06:31;12.10;;;1.90;;
66485;SDS011;53303;47.476;8.084;2023-05-10T04:08:57;13.90;;;1.95;;
66485;SDS011;53303;47.476;8.084;2023-05-10T04:11:25;8.07;;;1.80;;
66485;SDS011;53303;47.476;8.084;2023-05-10T04:13:50;18.40;;;2.35;;
66485;SDS011;53303;47.476;8.084;2023-05-10T04:16:16;13.48;;;2.00;;
66485;SDS011;53303;47.476;8.084;2023-05-10T04:18:41;13.60;;;1.83;;
66485;SDS011;53303;47.476;8.084;2023-05-10T04:21:13;9.10;;;1.75;;
66485;SDS011;53303;47.476;8.084;2023-05-10T04:23:39;11.40;;;1.85;;
66485;SDS011;53303;47.476;8.084;2023-05-10T04:26:05;8.80;;;1.70;;
66485;SDS011;53303;47.476;8.084;2023-05-10T04:28:31;10.98;;;1.63;;
66485;SDS011;53303;47.476;8.084;2023-05-10T04:31:00;11.98;;;1.88;;
66485;SDS011;53303;47.476;8.084;2023-05-10T04:33:32;7.53;;;1.63;;
66485;SDS011;53303;47.476;8.084;2023-05-10T04:35:58;8.30;;;1.70;;
66485;SDS011;53303;47.476;8.084;2023-05-10T04:38:27;7.53;;;1.60;;
66485;SDS011;53303;47.476;8.084;2023-05-10T04:40:53;12.88;;;1.60;;
66485;SDS011;53303;47.476;8.084;2023-05-10T04:43:19;6.85;;;1.73;;
66485;SDS011;53303;47.476;8.084;2023-05-10T04:45:44;6.55;;;1.60;;
66485;SDS011;53303;47.476;8.084;2023-05-10T04:48:10;9.93;;;1.70;;
66485;SDS011;53303;47.476;8.084;2023-05-10T04:50:35;6.97;;;1.70;;
66485;SDS011;53303;47.476;8.084;2023-05-10T04:53:01;6.88;;;1.75;;
66485;SDS011;53303;47.476;8.084;2023-05-10T04:55:31;8.43;;;1.60;;
66485;SDS011;53303;47.476;8.084;2023-05-10T04:57:56;11.27;;;2.22;;
66485;SDS011;53303;47.476;8.084;2023-05-10T05:00:23;7.47;;;1.90;;
66485;SDS011;53303;47.476;8.084;2023-05-10T05:02:51;12.88;;;1.95;;
66485;SDS011;53303;47.476;8.084;2023-05-10T05:05:16;8.73;;;1.60;;
66485;SDS011;53303;47.476;8.084;2023-05-10T05:07:45;4.65;;;1.50;;
66485;SDS011;53303;47.476;8.084;2023-05-10T05:10:10;7.80;;;1.88;;
66485;SDS011;53303;47.476;8.084;2023-05-10T05:12:36;10.77;;;1.90;;
66485;SDS011;53303;47.476;8.084;2023-05-10T05:15:01;7.50;;;1.70;;
66485;SDS011;53303;47.476;8.084;2023-05-10T05:17:27;7.65;;;1.55;;
66485;SDS011;53303;47.476;8.084;2023-05-10T05:19:57;10.68;;;1.80;;
66485;SDS011;53303;47.476;8.084;2023-05-10T05:22:22;9.68;;;1.95;;
66485;SDS011;53303;47.476;8.084;2023-05-10T05:24:55;5.53;;;1.50;;
66485;SDS011;53303;47.476;8.084;2023-05-10T05:27:22;7.72;;;1.80;;
66485;SDS011;53303;47.476;8.084;2023-05-10T05:29:52;10.02;;;1.90;;
66485;SDS011;53303;47.476;8.084;2023-05-10T05:32:18;8.77;;;2.00;;
66485;SDS011;53303;47.476;8.084;2023-05-10T05:34:44;7.13;;;1.70;;
66485;SDS011;53303;47.476;8.084;2023-05-10T05:37:18;8.65;;;1.33;;
66485;SDS011;53303;47.476;8.084;2023-05-10T05:39:46;10.13;;;2.15;;
66485;SDS011;53303;47.476;8.084;2023-05-10T05:42:12;7.70;;;1.60;;
66485;SDS011;53303;47.476;8.084;2023-05-10T05:44:38;8.50;;;1.83;;
66485;SDS011;53303;47.476;8.084;2023-05-10T05:47:04;6.13;;;1.67;;
66485;SDS011;53303;47.476;8.084;2023-05-10T05:49:31;5.95;;;1.50;;
66485;SDS011;53303;47.476;8.084;2023-05-10T05:51:59;6.05;;;1.42;;
66485;SDS011;53303;47.476;8.084;2023-05-10T05:54:28;6.40;;;1.45;;
66485;SDS011;53303;47.476;8.084;2023-05-10T05:56:54;6.85;;;1.58;;
66485;SDS011;53303;47.476;8.084;2023-05-10T05:59:20;6.32;;;1.70;;
66485;SDS011;53303;47.476;8.084;2023-05-10T06:01:49;6.60;;;1.58;;
66485;SDS011;53303;47.476;8.084;2023-05-10T06:04:14;6.93;;;1.80;;
66485;SDS011;53303;47.476;8.084;2023-05-10T06:06:40;5.72;;;1.50;;
66485;SDS011;53303;47.476;8.084;2023-05-10T06:09:06;4.63;;;1.70;;
66485;SDS011;53303;47.476;8.084;2023-05-10T06:11:31;10.93;;;1.77;;
66485;SDS011;53303;47.476;8.084;2023-05-10T06:13:59;6.43;;;1.63;;
66485;SDS011;53303;47.476;8.084;2023-05-10T06:16:25;7.50;;;1.52;;
66485;SDS011;53303;47.476;8.084;2023-05-10T06:18:51;6.20;;;1.60;;
66485;SDS011;53303;47.476;8.084;2023-05-10T06:21:16;7.95;;;1.90;;
66485;SDS011;53303;47.476;8.084;2023-05-10T06:23:44;6.35;;;1.90;;
66485;SDS011;53303;47.476;8.084;2023-05-10T06:26:10;6.07;;;1.65;;
66485;SDS011;53303;47.476;8.084;2023-05-10T06:28:38;5.85;;;1.60;;
66485;SDS011;53303;47.476;8.084;2023-05-10T06:31:04;10.75;;;2.05;;
66485;SDS011;53303;47.476;8.084;2023-05-10T06:33:30;8.13;;;1.80;;
66485;SDS011;53303;47.476;8.084;2023-05-10T06:35:57;4.97;;;1.33;;
66485;SDS011;53303;47.476;8.084;2023-05-10T06:38:23;6.05;;;1.70;;
66485;SDS011;53303;47.476;8.084;2023-05-10T06:40:48;6.38;;;1.48;;
66485;SDS011;53303;47.476;8.084;2023-05-10T06:43:14;7.28;;;1.50;;
66485;SDS011;53303;47.476;8.084;2023-05-10T06:45:39;5.22;;;1.55;;
66485;SDS011;53303;47.476;8.084;2023-05-10T06:48:07;5.97;;;1.50;;
66485;SDS011;53303;47.476;8.084;2023-05-10T06:50:33;6.22;;;1.70;;
66485;SDS011;53303;47.476;8.084;2023-05-10T06:52:59;6.25;;;1.40;;
66485;SDS011;53303;47.476;8.084;2023-05-10T06:55:27;5.63;;;1.65;;
66485;SDS011;53303;47.476;8.084;2023-05-10T06:57:53;5.75;;;1.70;;
66485;SDS011;53303;47.476;8.084;2023-05-10T07:00:19;4.18;;;1.45;;
66485;SDS011;53303;47.476;8.084;2023-05-10T07:02:44;3.90;;;1.38;;
66485;SDS011;53303;47.476;8.084;2023-05-10T07:05:10;4.88;;;1.55;;
66485;SDS011;53303;47.476;8.084;2023-05-10T07:07:36;5.15;;;1.50;;
66485;SDS011;53303;47.476;8.084;2023-05-10T07:10:02;6.35;;;1.63;;
66485;SDS011;53303;47.476;8.084;2023-05-10T07:12:30;5.13;;;1.30;;
66485;SDS011;53303;47.476;8.084;2023-05-10T07:14:55;6.75;;;1.70;;
66485;SDS011;53303;47.476;8.084;2023-05-10T07:17:20;6.07;;;1.57;;
66485;SDS011;53303;47.476;8.084;2023-05-10T07:19:46;7.85;;;1.60;;
66485;SDS011;53303;47.476;8.084;2023-05-10T07:22:11;7.18;;;1.40;;
66485;SDS011;53303;47.476;8.084;2023-05-10T07:24:37;6.20;;;1.73;;
66485;SDS011;53303;47.476;8.084;2023-05-10T07:27:02;5.63;;;1.70;;
66485;SDS011;53303;47.476;8.084;2023-05-10T07:29:27;3.83;;;1.40;;
66485;SDS011;53303;47.476;8.084;2023-05-10T07:31:53;4.47;;;1.67;;
66485;SDS011;53303;47.476;8.084;2023-05-10T07:34:19;4.82;;;1.70;;
66485;SDS011;53303;47.476;8.084;2023-05-10T07:36:44;7.85;;;1.50;;
66485;SDS011;53303;47.476;8.084;2023-05-10T07:39:12;4.60;;;1.30;;
66485;SDS011;53303;47.476;8.084;2023-05-10T07:41:37;3.35;;;1.48;;
66485;SDS011;53303;47.476;8.084;2023-05-10T07:44:03;6.38;;;1.40;;
66485;SDS011;53303;47.476;8.084;2023-05-10T07:46:34;4.95;;;1.35;;
66485;SDS011;53303;47.476;8.084;2023-05-10T07:49:00;3.45;;;1.30;;
66485;SDS011;53303;47.476;8.084;2023-05-10T07:51:25;7.40;;;1.60;;
66485;SDS011;53303;47.476;8.084;2023-05-10T07:53:51;5.90;;;1.63;;
66485;SDS011;53303;47.476;8.084;2023-05-10T07:58:48;6.82;;;1.58;;
66485;SDS011;53303;47.476;8.084;2023-05-10T08:01:14;3.38;;;1.38;;
66485;SDS011;53303;47.476;8.084;2023-05-10T08:03:39;3.30;;;1.50;;
66485;SDS011;53303;47.476;8.084;2023-05-10T08:06:07;5.88;;;1.48;;
66485;SDS011;53303;47.476;8.084;2023-05-10T08:08:32;5.78;;;1.58;;
66485;SDS011;53303;47.476;8.084;2023-05-10T08:10:58;6.95;;;1.55;;
66485;SDS011;53303;47.476;8.084;2023-05-10T08:13:23;5.07;;;1.67;;
66485;SDS011;53303;47.476;8.084;2023-05-10T08:15:49;5.05;;;1.60;;
66485;SDS011;53303;47.476;8.084;2023-05-10T08:18:17;5.47;;;1.50;;
66485;SDS011;53303;47.476;8.084;2023-05-10T08:20:46;5.72;;;1.60;;
66485;SDS011;53303;47.476;8.084;2023-05-10T08:23:14;4.47;;;1.58;;
66485;SDS011;53303;47.476;8.084;2023-05-10T08:25:40;4.65;;;1.60;;
66485;SDS011;53303;47.476;8.084;2023-05-10T08:28:06;4.53;;;1.58;;
66485;SDS011;53303;47.476;8.084;2023-05-10T08:30:31;3.65;;;1.55;;
66485;SDS011;53303;47.476;8.084;2023-05-10T08:32:56;3.92;;;1.35;;
66485;SDS011;53303;47.476;8.084;2023-05-10T08:35:22;4.18;;;1.60;;
66485;SDS011;53303;47.476;8.084;2023-05-10T08:37:47;3.25;;;1.52;;
66485;SDS011;53303;47.476;8.084;2023-05-10T08:40:15;3.17;;;1.33;;
66485;SDS011;53303;47.476;8.084;2023-05-10T08:42:42;5.97;;;1.80;;
66485;SDS011;53303;47.476;8.084;2023-05-10T08:45:12;4.05;;;1.70;;
66485;SDS011;53303;47.476;8.084;2023-05-10T08:47:40;4.00;;;1.50;;
66485;SDS011;53303;47.476;8.084;2023-05-10T08:50:06;4.40;;;1.30;;
66485;SDS011;53303;47.476;8.084;2023-05-10T08:52:35;3.47;;;1.42;;
66485;SDS011;53303;47.476;8.084;2023-05-10T08:55:04;3.28;;;1.38;;
66485;SDS011;53303;47.476;8.084;2023-05-10T08:57:30;4.53;;;1.50;;
66485;SDS011;53303;47.476;8.084;2023-05-10T08:59:58;6.40;;;1.60;;
66485;SDS011;53303;47.476;8.084;2023-05-10T09:02:25;5.53;;;1.50;;
66485;SDS011;53303;47.476;8.084;2023-05-10T09:04:51;4.95;;;1.48;;
66485;SDS011;53303;47.476;8.084;2023-05-10T09:07:17;7.40;;;1.42;;
66485;SDS011;53303;47.476;8.084;2023-05-10T09:09:44;3.80;;;1.40;;
66485;SDS011;53303;47.476;8.084;2023-05-10T09:12:11;3.92;;;1.48;;
66485;SDS011;53303;47.476;8.084;2023-05-10T09:14:38;5.18;;;1.67;;
66485;SDS011;53303;47.476;8.084;2023-05-10T09:17:06;5.38;;;1.60;;
66485;SDS011;53303;47.476;8.084;2023-05-10T09:19:34;4.78;;;1.67;;
66485;SDS011;53303;47.476;8.084;2023-05-10T09:21:59;4.70;;;1.70;;
66485;SDS011;53303;47.476;8.084;2023-05-10T09:24:28;4.32;;;1.42;;
66485;SDS011;53303;47.476;8.084;2023-05-10T09:26:57;5.85;;;1.55;;
66485;SDS011;53303;47.476;8.084;2023-05-10T09:29:23;4.45;;;1.40;;
66485;SDS011;53303;47.476;8.084;2023-05-10T09:31:52;4.95;;;1.52;;
66485;SDS011;53303;47.476;8.084;2023-05-10T09:34:20;4.88;;;1.52;;
66485;SDS011;53303;47.476;8.084;2023-05-10T09:36:55;6.32;;;1.60;;
66485;SDS011;53303;47.476;8.084;2023-05-10T09:39:31;5.18;;;1.40;;
66485;SDS011;53303;47.476;8.084;2023-05-10T09:42:02;3.22;;;1.40;;
66485;SDS011;53303;47.476;8.084;2023-05-10T09:44:34;5.03;;;1.65;;
66485;SDS011;53303;47.476;8.084;2023-05-10T09:47:00;4.57;;;1.60;;
66485;SDS011;53303;47.476;8.084;2023-05-10T09:49:26;4.78;;;1.67;;
66485;SDS011;53303;47.476;8.084;2023-05-10T09:52:02;5.70;;;1.70;;
66485;SDS011;53303;47.476;8.084;2023-05-10T09:54:31;5.82;;;1.73;;
66485;SDS011;53303;47.476;8.084;2023-05-10T09:56:57;4.72;;;1.60;;
66485;SDS011;53303;47.476;8.084;2023-05-10T09:59:24;4.10;;;1.45;;
66485;SDS011;53303;47.476;8.084;2023-05-10T10:01:52;4.68;;;1.65;;
66485;SDS011;53303;47.476;8.084;2023-05-10T10:04:19;4.10;;;1.48;;
66485;SDS011;53303;47.476;8.084;2023-05-10T10:06:45;4.88;;;1.77;;
66485;SDS011;53303;47.476;8.084;2023-05-10T10:09:10;4.85;;;1.42;;
66485;SDS011;53303;47.476;8.084;2023-05-10T10:11:36;5.13;;;1.80;;
66485;SDS011;53303;47.476;8.084;2023-05-10T10:14:03;5.05;;;1.67;;
66485;SDS011;53303;47.476;8.084;2023-05-10T10:16:29;6.00;;;1.73;;
66485;SDS011;53303;47.476;8.084;2023-05-10T10:18:55;5.05;;;1.88;;
66485;SDS011;53303;47.476;8.084;2023-05-10T10:21:21;3.38;;;1.50;;
66485;SDS011;53303;47.476;8.084;2023-05-10T10:23:50;4.15;;;1.50;;
66485;SDS011;53303;47.476;8.084;2023-05-10T10:26:17;3.53;;;1.30;;
66485;SDS011;53303;47.476;8.084;2023-05-10T10:28:57;5.35;;;1.88;;
66485;SDS011;53303;47.476;8.084;2023-05-10T10:31:45;3.55;;;1.73;;
66485;SDS011;53303;47.476;8.084;2023-05-10T10:34:44;3.78;;;1.50;;
66485;SDS011;53303;47.476;8.084;2023-05-10T10:37:04;4.32;;;1.35;;
66485;SDS011;53303;47.476;8.084;2023-05-10T10:39:30;3.17;;;1.33;;
66485;SDS011;53303;47.476;8.084;2023-05-10T10:41:56;4.10;;;1.70;;
66485;SDS011;53303;47.476;8.084;2023-05-10T10:49:27;4.07;;;1.40;;
66485;SDS011;53303;47.476;8.084;2023-05-10T10:54:41;4.85;;;1.88;;
66485;SDS011;53303;47.476;8.084;2023-05-10T10:57:10;4.65;;;1.65;;
66485;SDS011;53303;47.476;8.084;2023-05-10T10:59:41;3.97;;;1.60;;
66485;SDS011;53303;47.476;8.084;2023-05-10T11:02:07;3.25;;;1.58;;
66485;SDS011;53303;47.476;8.084;2023-05-10T11:04:42;4.22;;;1.52;;
66485;SDS011;53303;47.476;8.084;2023-05-10T11:09:39;3.20;;;1.50;;
66485;SDS011;53303;47.476;8.084;2023-05-10T11:12:07;3.30;;;1.38;;
66485;SDS011;53303;47.476;8.084;2023-05-10T11:14:33;4.75;;;1.73;;
66485;SDS011;53303;47.476;8.084;2023-05-10T11:16:59;3.53;;;1.52;;
66485;SDS011;53303;47.476;8.084;2023-05-10T11:19:29;3.55;;;1.52;;
66485;SDS011;53303;47.476;8.084;2023-05-10T11:24:28;4.07;;;1.60;;
66485;SDS011;53303;47.476;8.084;2023-05-10T11:26:53;3.38;;;1.33;;
66485;SDS011;53303;47.476;8.084;2023-05-10T11:29:19;4.40;;;1.70;;
66485;SDS011;53303;47.476;8.084;2023-05-10T11:31:45;4.07;;;1.60;;
66485;SDS011;53303;47.476;8.084;2023-05-10T11:34:22;3.85;;;1.60;;
66485;SDS011;53303;47.476;8.084;2023-05-10T11:36:52;3.53;;;1.60;;
66485;SDS011;53303;47.476;8.084;2023-05-10T11:39:25;4.15;;;1.60;;
66485;SDS011;53303;47.476;8.084;2023-05-10T11:41:51;3.75;;;1.50;;
66485;SDS011;53303;47.476;8.084;2023-05-10T11:44:17;2.88;;;1.23;;
66485;SDS011;53303;47.476;8.084;2023-05-10T11:46:42;3.75;;;1.48;;
66485;SDS011;53303;47.476;8.084;2023-05-10T11:49:08;2.42;;;1.30;;
66485;SDS011;53303;47.476;8.084;2023-05-10T11:51:34;4.90;;;1.67;;
66485;SDS011;53303;47.476;8.084;2023-05-10T11:54:10;4.38;;;1.60;;
66485;SDS011;53303;47.476;8.084;2023-05-10T11:59:04;4.20;;;1.65;;
66485;SDS011;53303;47.476;8.084;2023-05-10T12:01:33;3.53;;;1.50;;
66485;SDS011;53303;47.476;8.084;2023-05-10T12:04:01;4.03;;;1.75;;
66485;SDS011;53303;47.476;8.084;2023-05-10T12:06:27;3.42;;;1.40;;
66485;SDS011;53303;47.476;8.084;2023-05-10T12:08:54;3.78;;;1.20;;
66485;SDS011;53303;47.476;8.084;2023-05-10T12:11:20;3.90;;;1.60;;
66485;SDS011;53303;47.476;8.084;2023-05-10T12:13:53;3.60;;;1.50;;
66485;SDS011;53303;47.476;8.084;2023-05-10T12:16:20;6.03;;;1.65;;
66485;SDS011;53303;47.476;8.084;2023-05-10T12:18:52;4.40;;;1.63;;
66485;SDS011;53303;47.476;8.084;2023-05-10T12:21:19;4.22;;;1.60;;
66485;SDS011;53303;47.476;8.084;2023-05-10T12:23:58;3.00;;;1.50;;
66485;SDS011;53303;47.476;8.084;2023-05-10T12:26:25;3.88;;;1.58;;
66485;SDS011;53303;47.476;8.084;2023-05-10T12:28:54;5.30;;;1.60;;
66485;SDS011;53303;47.476;8.084;2023-05-10T12:31:20;4.72;;;1.50;;
66485;SDS011;53303;47.476;8.084;2023-05-10T12:33:46;4.25;;;1.58;;
66485;SDS011;53303;47.476;8.084;2023-05-10T12:36:13;5.97;;;1.55;;
66485;SDS011;53303;47.476;8.084;2023-05-10T12:38:43;5.15;;;1.90;;
66485;SDS011;53303;47.476;8.084;2023-05-10T12:41:16;4.35;;;1.75;;
66485;SDS011;53303;47.476;8.084;2023-05-10T12:43:43;4.28;;;1.98;;
66485;SDS011;53303;47.476;8.084;2023-05-10T12:46:13;3.95;;;1.70;;
66485;SDS011;53303;47.476;8.084;2023-05-10T12:48:39;6.97;;;2.00;;
66485;SDS011;53303;47.476;8.084;2023-05-10T12:51:06;4.32;;;1.50;;
66485;SDS011;53303;47.476;8.084;2023-05-10T12:53:39;5.43;;;1.58;;
66485;SDS011;53303;47.476;8.084;2023-05-10T12:56:04;6.22;;;1.95;;
66485;SDS011;53303;47.476;8.084;2023-05-10T12:58:30;5.97;;;1.83;;
66485;SDS011;53303;47.476;8.084;2023-05-10T13:00:57;4.80;;;1.73;;
66485;SDS011;53303;47.476;8.084;2023-05-10T13:03:23;5.07;;;1.60;;
66485;SDS011;53303;47.476;8.084;2023-05-10T13:05:48;8.25;;;1.85;;
66485;SDS011;53303;47.476;8.084;2023-05-10T13:08:16;4.35;;;1.70;;
66485;SDS011;53303;47.476;8.084;2023-05-10T13:10:43;4.45;;;1.50;;
66485;SDS011;53303;47.476;8.084;2023-05-10T13:13:09;5.40;;;1.80;;
66485;SDS011;53303;47.476;8.084;2023-05-10T13:15:34;4.15;;;1.70;;
66485;SDS011;53303;47.476;8.084;2023-05-10T13:18:00;5.90;;;1.50;;
66485;SDS011;53303;47.476;8.084;2023-05-10T13:20:25;4.75;;;1.55;;
66485;SDS011;53303;47.476;8.084;2023-05-10T13:22:51;5.25;;;1.73;;
66485;SDS011;53303;47.476;8.084;2023-05-10T13:25:17;5.30;;;1.77;;
66485;SDS011;53303;47.476;8.084;2023-05-10T13:27:45;4.22;;;1.55;;
66485;SDS011;53303;47.476;8.084;2023-05-10T13:30:11;3.95;;;1.50;;
66485;SDS011;53303;47.476;8.084;2023-05-10T13:32:39;3.60;;;1.50;;
66485;SDS011;53303;47.476;8.084;2023-05-10T13:35:09;3.92;;;1.63;;
66485;SDS011;53303;47.476;8.084;2023-05-10T13:37:35;3.42;;;1.60;;
66485;SDS011;53303;47.476;8.084;2023-05-10T13:40:02;3.20;;;1.40;;
66485;SDS011;53303;47.476;8.084;2023-05-10T13:42:31;3.42;;;1.45;;
66485;SDS011;53303;47.476;8.084;2023-05-10T13:44:58;5.80;;;1.80;;
66485;SDS011;53303;47.476;8.084;2023-05-10T13:47:25;4.65;;;1.63;;
66485;SDS011;53303;47.476;8.084;2023-05-10T13:49:50;4.90;;;1.95;;
66485;SDS011;53303;47.476;8.084;2023-05-10T13:52:16;6.10;;;2.00;;
66485;SDS011;53303;47.476;8.084;2023-05-10T13:54:44;4.15;;;1.70;;
66485;SDS011;53303;47.476;8.084;2023-05-10T13:57:10;4.03;;;1.75;;
66485;SDS011;53303;47.476;8.084;2023-05-10T13:59:38;6.35;;;1.90;;
66485;SDS011;53303;47.476;8.084;2023-05-10T14:02:04;5.18;;;1.73;;
66485;SDS011;53303;47.476;8.084;2023-05-10T14:04:30;4.72;;;1.80;;
66485;SDS011;53303;47.476;8.084;2023-05-10T14:06:57;4.55;;;1.83;;
66485;SDS011;53303;47.476;8.084;2023-05-10T14:09:28;5.65;;;1.58;;
66485;SDS011;53303;47.476;8.084;2023-05-10T14:11:53;7.55;;;2.00;;
66485;SDS011;53303;47.476;8.084;2023-05-10T14:14:19;4.57;;;1.42;;
66485;SDS011;53303;47.476;8.084;2023-05-10T14:16:44;3.75;;;1.70;;
66485;SDS011;53303;47.476;8.084;2023-05-10T14:19:10;5.82;;;1.80;;
66485;SDS011;53303;47.476;8.084;2023-05-10T14:21:36;5.28;;;1.95;;
66485;SDS011;53303;47.476;8.084;2023-05-10T14:24:02;5.22;;;1.70;;
66485;SDS011;53303;47.476;8.084;2023-05-10T14:26:27;5.95;;;1.58;;
66485;SDS011;53303;47.476;8.084;2023-05-10T14:28:55;5.80;;;1.67;;
66485;SDS011;53303;47.476;8.084;2023-05-10T14:31:23;6.55;;;1.75;;
66485;SDS011;53303;47.476;8.084;2023-05-10T14:33:50;6.53;;;1.75;;
66485;SDS011;53303;47.476;8.084;2023-05-10T14:36:15;4.28;;;1.58;;
66485;SDS011;53303;47.476;8.084;2023-05-10T14:38:42;5.93;;;1.88;;
66485;SDS011;53303;47.476;8.084;2023-05-10T14:41:07;4.78;;;1.92;;
66485;SDS011;53303;47.476;8.084;2023-05-10T14:43:38;4.00;;;1.70;;
66485;SDS011;53303;47.476;8.084;2023-05-10T14:46:04;5.05;;;1.67;;
66485;SDS011;53303;47.476;8.084;2023-05-10T14:48:32;5.18;;;1.77;;
66485;SDS011;53303;47.476;8.084;2023-05-10T14:50:57;6.35;;;1.70;;
66485;SDS011;53303;47.476;8.084;2023-05-10T14:53:25;4.88;;;1.85;;
66485;SDS011;53303;47.476;8.084;2023-05-10T14:55:51;4.88;;;1.75;;
66485;SDS011;53303;47.476;8.084;2023-05-10T14:58:16;7.50;;;1.90;;
66485;SDS011;53303;47.476;8.084;2023-05-10T15:00:41;6.15;;;1.88;;
66485;SDS011;53303;47.476;8.084;2023-05-10T15:03:07;4.35;;;1.70;;
66485;SDS011;53303;47.476;8.084;2023-05-10T15:05:32;5.45;;;1.88;;
66485;SDS011;53303;47.476;8.084;2023-05-10T15:08:02;6.13;;;1.90;;
66485;SDS011;53303;47.476;8.084;2023-05-10T15:10:30;3.72;;;1.80;;
66485;SDS011;53303;47.476;8.084;2023-05-10T15:12:56;4.30;;;1.77;;
66485;SDS011;53303;47.476;8.084;2023-05-10T15:15:24;5.07;;;1.83;;
66485;SDS011;53303;47.476;8.084;2023-05-10T15:17:49;4.97;;;1.63;;
66485;SDS011;53303;47.476;8.084;2023-05-10T15:20:15;5.07;;;1.63;;
66485;SDS011;53303;47.476;8.084;2023-05-10T15:22:40;3.65;;;1.77;;